createdAt,value
2023-04-05T00:02:30.202Z,20.79
2023-04-05T00:05:54.833Z,20.80
2023-04-05T00:09:27.251Z,20.80
2023-04-05T00:12:51.200Z,20.80
2023-04-05T00:16:12.870Z,20.81
2023-04-05T00:19:58.251Z,20.84
2023-04-05T00:23:21.575Z,20.84
2023-04-05T00:26:47.580Z,20.85
2023-04-05T00:30:21.046Z,20.81
2023-04-05T00:33:44.662Z,20.84
2023-04-05T00:37:09.842Z,20.86
2023-04-05T00:40:34.127Z,20.89
2023-04-05T00:44:00.914Z,20.91
2023-04-05T00:47:25.125Z,20.94
2023-04-05T00:50:50.499Z,20.97
2023-04-05T00:54:20.692Z,20.98
2023-04-05T00:57:45.560Z,20.99
2023-04-05T01:01:24.704Z,21.00
2023-04-05T01:04:52.143Z,21.02
2023-04-05T01:08:33.361Z,21.04
2023-04-05T01:12:04.615Z,21.05
2023-04-05T01:15:34.095Z,21.07
2023-04-05T01:19:03.989Z,21.11
2023-04-05T01:22:29.855Z,21.15
2023-04-05T01:26:27.975Z,21.22
2023-04-05T01:30:29.997Z,21.25
2023-04-05T01:34:44.248Z,21.26
2023-04-05T01:38:07.913Z,21.27
2023-04-05T01:41:33.226Z,21.30
2023-04-05T01:45:02.267Z,21.32
2023-04-05T01:52:06.262Z,21.35
2023-04-05T01:55:35.356Z,21.39
2023-04-05T01:58:57.057Z,21.41
2023-04-05T02:02:23.551Z,21.44
2023-04-05T02:05:49.362Z,21.46
2023-04-05T02:09:21.881Z,21.49
2023-04-05T02:12:47.390Z,21.52
2023-04-05T02:16:13.255Z,21.56
2023-04-05T02:19:44.110Z,21.59
2023-04-05T02:23:09.028Z,21.59
2023-04-05T02:26:30.951Z,21.59
2023-04-05T02:29:56.323Z,21.60
2023-04-05T02:33:20.207Z,21.63
2023-04-05T02:36:41.933Z,21.65
2023-04-05T02:40:17.052Z,21.69
2023-04-05T02:43:41.546Z,21.73
2023-04-05T02:47:08.554Z,21.75
2023-04-05T02:50:31.301Z,21.76
2023-04-05T02:53:56.673Z,21.74
2023-04-05T02:57:20.823Z,21.75
2023-04-05T03:01:02.306Z,21.76
2023-04-05T03:04:27.118Z,21.81
2023-04-05T03:07:54.766Z,21.84
2023-04-05T03:11:22.189Z,21.88
2023-04-05T03:14:46.748Z,21.90
2023-04-05T03:18:11.243Z,21.97
2023-04-05T03:21:34.019Z,21.99
2023-04-05T03:25:19.381Z,21.94
2023-04-05T03:28:46.871Z,21.85
2023-04-05T03:32:11.862Z,21.80
2023-04-05T03:35:39.674Z,21.76
2023-04-05T03:39:03.904Z,21.73
2023-04-05T03:42:28.769Z,21.69
2023-04-05T03:45:51.803Z,21.67
2023-04-05T03:49:23.158Z,21.64
2023-04-05T03:52:47.573Z,21.63
2023-04-05T03:56:10.165Z,21.64
2023-04-05T03:59:40.322Z,21.62
2023-04-05T04:03:02.679Z,21.62
2023-04-05T04:06:30.182Z,21.62
2023-04-05T04:09:56.815Z,21.60
2023-04-05T04:13:22.960Z,21.60
2023-04-05T04:16:55.241Z,21.57
2023-04-05T04:20:37.577Z,21.60
2023-04-05T04:24:02.162Z,21.63
2023-04-05T04:27:45.108Z,21.73
2023-04-05T04:31:30.994Z,21.76
2023-04-05T04:35:10.755Z,21.74
2023-04-05T04:38:51.248Z,21.72
2023-04-05T04:42:49.015Z,21.68
2023-04-05T04:46:35.176Z,21.66
2023-04-05T04:50:03.600Z,21.63
2023-04-05T04:53:29.316Z,21.60
2023-04-05T04:56:51.011Z,21.58
2023-04-05T05:00:15.981Z,21.59
2023-04-05T05:03:45.634Z,21.60
2023-04-05T05:07:11.203Z,21.59
2023-04-05T05:10:35.546Z,21.57
2023-04-05T05:14:09.744Z,21.58
2023-04-05T05:17:33.434Z,21.59
2023-04-05T05:20:56.345Z,21.61
2023-04-05T05:24:20.207Z,21.63
2023-04-05T05:27:42.272Z,21.61
2023-04-05T05:31:04.465Z,21.61
2023-04-05T05:34:33.869Z,21.61
2023-04-05T05:37:56.004Z,21.66
2023-04-05T05:41:17.706Z,21.69
2023-04-05T05:44:50.130Z,21.72
2023-04-05T05:48:28.793Z,21.79
2023-04-05T05:51:53.608Z,21.80
2023-04-05T05:55:21.557Z,21.79
2023-04-05T05:58:43.631Z,21.77
2023-04-05T06:02:11.031Z,21.70
2023-04-05T06:05:48.589Z,21.67
2023-04-05T06:09:15.768Z,21.62
2023-04-05T06:12:37.787Z,21.60
2023-04-05T06:16:02.634Z,21.58
2023-04-05T06:19:24.446Z,21.56
2023-04-05T06:22:46.005Z,21.53
2023-04-05T06:26:27.284Z,21.50
2023-04-05T06:29:51.978Z,21.48
2023-04-05T06:33:16.953Z,21.49
2023-04-05T06:36:46.977Z,21.46
2023-04-05T06:40:17.262Z,21.45
2023-04-05T06:43:39.070Z,21.43
2023-04-05T06:47:01.509Z,21.41
2023-04-05T06:50:24.328Z,21.41
2023-04-05T06:53:46.605Z,21.41
2023-04-05T06:57:08.456Z,21.44
2023-04-05T07:00:30.145Z,21.43
2023-04-05T07:03:55.004Z,21.43
2023-04-05T07:07:17.718Z,21.42
2023-04-05T07:10:50.289Z,21.42
2023-04-05T07:14:12.565Z,21.41
2023-04-05T07:17:34.308Z,21.40
2023-04-05T07:21:04.061Z,21.40
2023-04-05T07:24:26.135Z,21.40
2023-04-05T07:27:54.302Z,21.40
2023-04-05T07:31:18.358Z,21.40
2023-04-05T07:35:12.380Z,21.38
2023-04-05T07:38:43.394Z,21.35
2023-04-05T07:42:11.373Z,21.35
2023-04-05T07:46:12.867Z,21.33
2023-04-05T07:53:33.561Z,21.30
2023-04-05T07:56:57.609Z,21.30
2023-04-05T08:01:00.407Z,21.28
2023-04-05T08:05:30.945Z,21.28
2023-04-05T08:09:54.173Z,21.28
2023-04-05T08:13:26.638Z,21.26
2023-04-05T08:16:53.672Z,21.28
2023-04-05T08:20:24.628Z,21.25
2023-04-05T08:23:51.061Z,21.22
2023-04-05T08:27:24.713Z,21.20
2023-04-05T08:31:01.837Z,21.19
2023-04-05T08:34:23.472Z,21.16
2023-04-05T08:37:49.104Z,21.13
2023-04-05T08:41:23.762Z,21.12
2023-04-05T08:44:47.549Z,21.11
2023-04-05T08:48:35.518Z,21.11
2023-04-05T08:52:04.090Z,21.09
2023-04-05T08:55:57.769Z,21.07
2023-04-05T08:59:20.434Z,21.06
2023-04-05T09:02:49.587Z,21.04
2023-04-05T09:06:13.004Z,21.02
2023-04-05T09:09:37.747Z,21.01
2023-04-05T09:13:07.839Z,21.00
2023-04-05T09:17:02.887Z,20.99
2023-04-05T09:20:24.539Z,20.99
2023-04-05T09:24:46.831Z,20.98
2023-04-05T09:28:57.188Z,20.95
2023-04-05T09:32:32.617Z,20.98
2023-04-05T09:36:23.209Z,21.01
2023-04-05T09:39:57.968Z,21.00
2023-04-05T09:43:49.083Z,20.99
2023-04-05T09:47:32.672Z,20.98
2023-04-05T09:51:38.253Z,20.99
2023-04-05T09:55:17.842Z,20.95
2023-04-05T09:58:50.316Z,20.95
2023-04-05T10:03:28.941Z,21.07
2023-04-05T10:15:56.990Z,21.54
2023-04-05T10:19:48.250Z,21.49
2023-04-05T10:23:13.122Z,21.40
2023-04-05T10:27:29.509Z,21.37
2023-04-05T10:36:55.917Z,21.33
2023-04-05T10:41:07.829Z,21.10
2023-04-05T10:45:38.132Z,20.88
2023-04-05T11:04:18.893Z,20.71
2023-04-05T11:09:03.759Z,20.74
2023-04-05T11:13:42.473Z,20.82
2023-04-05T11:22:17.384Z,20.36
2023-04-05T11:27:10.827Z,19.78
2023-04-05T12:07:58.414Z,19.36
2023-04-05T12:13:59.515Z,19.42
2023-04-05T12:35:16.300Z,19.72
2023-04-05T13:25:16.635Z,19.64
2023-04-05T13:29:21.946Z,19.51
2023-04-05T13:42:58.691Z,19.34
2023-04-05T13:52:53.900Z,19.28
2023-04-05T14:06:19.644Z,19.31
2023-04-05T14:19:06.705Z,19.37
2023-04-05T14:23:34.795Z,19.41
2023-04-05T14:27:43.113Z,19.42
2023-04-05T14:41:42.706Z,19.49
2023-04-05T14:51:08.935Z,19.53
2023-04-05T15:02:59.408Z,23.61
2023-04-05T15:11:26.970Z,24.77
2023-04-05T15:15:29.680Z,24.71
2023-04-05T15:20:24.964Z,24.06
2023-04-05T15:37:02.108Z,19.98
2023-04-05T15:40:47.085Z,19.70
2023-04-05T15:44:53.519Z,19.53
2023-04-05T15:49:40.034Z,19.39
2023-04-05T15:58:50.545Z,19.16
2023-04-05T16:02:30.629Z,19.10
2023-04-05T16:18:38.595Z,19.16
2023-04-05T16:22:34.527Z,19.21
2023-04-05T16:26:15.682Z,19.34
2023-04-05T16:30:24.713Z,21.42
2023-04-05T16:33:49.792Z,21.55
2023-04-05T16:37:12.346Z,21.21
2023-04-05T16:40:35.190Z,20.97
2023-04-05T16:43:56.824Z,20.84
2023-04-05T16:47:52.304Z,20.78
2023-04-05T16:51:20.435Z,20.85
2023-04-05T16:54:45.641Z,20.85
2023-04-05T16:58:17.721Z,20.79
2023-04-05T17:01:59.592Z,20.70
2023-04-05T17:05:35.574Z,20.61
2023-04-05T17:09:14.490Z,20.53
2023-04-05T17:12:52.792Z,20.45
2023-04-05T17:16:42.099Z,20.40
2023-04-05T17:20:16.511Z,20.34
2023-04-05T17:23:47.556Z,20.29
2023-04-05T17:27:19.154Z,20.24
2023-04-05T17:31:19.955Z,20.23
2023-04-05T17:34:58.711Z,20.27
2023-04-05T17:38:41.799Z,20.34
2023-04-05T17:42:16.681Z,20.55
2023-04-05T17:45:59.754Z,20.96
2023-04-05T17:49:48.070Z,21.10
2023-04-05T17:53:35.334Z,21.18
2023-04-05T17:57:01.799Z,21.19
2023-04-05T18:00:38.763Z,21.19
2023-04-05T18:04:16.465Z,21.21
2023-04-05T18:07:51.781Z,21.24
2023-04-05T18:11:13.455Z,21.23
2023-04-05T18:14:43.312Z,21.17
2023-04-05T18:18:15.205Z,21.11
2023-04-05T18:21:43.942Z,21.06
2023-04-05T18:25:28.493Z,21.00
2023-04-05T18:29:16.999Z,20.93
2023-04-05T18:33:05.285Z,20.86
2023-04-05T18:41:28.050Z,21.08
2023-04-05T18:48:47.583Z,21.46
2023-04-05T18:52:20.442Z,21.50
2023-04-05T18:55:46.325Z,21.52
2023-04-05T18:59:22.191Z,21.57
2023-04-05T19:17:21.498Z,22.06
2023-04-05T19:21:42.747Z,22.12
2023-04-05T19:25:31.853Z,22.05
2023-04-05T19:29:14.503Z,21.96
2023-04-05T19:32:38.342Z,21.88
2023-04-05T19:36:30.257Z,21.79
2023-04-05T19:39:50.300Z,21.70
2023-04-05T19:43:17.059Z,21.63
2023-04-05T19:46:49.457Z,21.56
2023-04-05T19:50:54.317Z,21.50
2023-04-05T19:54:26.001Z,21.43
2023-04-05T19:57:56.734Z,21.37
2023-04-05T20:01:57.594Z,21.32
2023-04-05T20:18:18.156Z,21.09
2023-04-05T20:34:51.791Z,20.94
2023-04-05T20:38:44.676Z,20.89
2023-04-05T20:43:55.759Z,20.85
2023-04-05T20:56:28.595Z,20.78
2023-04-05T21:00:47.012Z,20.79
2023-04-05T21:05:15.573Z,20.77
2023-04-05T21:09:09.040Z,20.81
2023-04-05T21:13:07.354Z,20.90
2023-04-05T21:16:48.272Z,20.89
2023-04-05T21:20:18.233Z,20.91
2023-04-05T21:27:41.434Z,20.86
2023-04-05T21:34:52.239Z,20.82
2023-04-05T21:38:19.553Z,20.80
2023-04-05T21:41:51.655Z,20.79
2023-04-05T21:50:09.398Z,20.74
2023-04-05T21:58:21.702Z,20.78
2023-04-05T22:15:13.574Z,20.63
2023-04-05T22:18:43.592Z,20.61
2023-04-05T22:22:13.520Z,20.57
2023-04-05T22:25:47.982Z,20.52
2023-04-05T22:30:03.418Z,20.49
2023-04-05T22:39:08.396Z,20.45
2023-04-05T22:46:48.526Z,20.44
2023-04-05T22:54:29.709Z,20.39
2023-04-05T22:57:59.106Z,20.39
2023-04-05T23:01:33.470Z,20.41
2023-04-05T23:05:04.336Z,20.39
2023-04-05T23:08:42.391Z,20.35
2023-04-05T23:12:07.188Z,20.34
2023-04-05T23:16:03.067Z,20.33
2023-04-05T23:19:50.637Z,20.29
2023-04-05T23:23:18.875Z,20.27
2023-04-05T23:26:59.148Z,20.25
2023-04-05T23:30:22.158Z,20.24
2023-04-05T23:33:45.216Z,20.24
2023-04-05T23:37:10.442Z,20.22
2023-04-05T23:40:35.131Z,20.22
2023-04-05T23:44:09.786Z,20.20
2023-04-05T23:47:32.663Z,20.20
2023-04-05T23:55:19.542Z,20.18
2023-04-05T23:59:17.940Z,20.18
